createdAt,value
2022-12-01T00:00:20.991Z,10.17
2022-12-01T00:10:28.686Z,9.73
2022-12-01T00:20:33.500Z,8.73
2022-12-01T00:30:37.918Z,9.73
2022-12-01T00:40:40.963Z,8.93
2022-12-01T00:50:45.770Z,9.03
2022-12-01T01:00:49.204Z,8.30
2022-12-01T01:10:53.630Z,8.93
2022-12-01T01:20:58.257Z,8.87
2022-12-01T01:31:06.442Z,9.07
2022-12-01T01:41:09.801Z,9.57
2022-12-01T01:51:15.556Z,8.67
2022-12-01T02:01:18.719Z,7.93
2022-12-01T02:11:48.509Z,8.90
2022-12-01T02:22:05.574Z,8.70
2022-12-01T02:32:18.093Z,8.63
2022-12-01T02:42:39.081Z,8.70
2022-12-01T02:52:44.381Z,9.20
2022-12-01T03:03:00.401Z,9.60
2022-12-01T03:13:15.204Z,9.57
2022-12-01T03:23:23.217Z,9.23
2022-12-01T03:33:33.008Z,9.17
2022-12-01T03:43:42.142Z,9.20
2022-12-01T03:53:53.968Z,9.63
2022-12-01T04:03:57.032Z,10.03
2022-12-01T04:14:01.448Z,10.33
2022-12-01T04:24:05.099Z,10.30
2022-12-01T04:34:11.809Z,10.10
2022-12-01T04:44:14.950Z,10.27
2022-12-01T04:54:19.657Z,10.67
2022-12-01T05:04:22.759Z,11.37
2022-12-01T05:14:27.370Z,11.13
2022-12-01T05:24:30.467Z,10.87
2022-12-01T05:34:35.074Z,11.23
2022-12-01T05:44:38.073Z,11.43
2022-12-01T05:54:42.569Z,12.07
2022-12-01T06:04:45.586Z,11.20
2022-12-01T06:14:50.012Z,12.20
2022-12-01T06:24:53.175Z,11.77
2022-12-01T06:34:57.603Z,11.23
2022-12-01T06:45:00.625Z,11.57
2022-12-01T06:55:05.526Z,12.23
2022-12-01T07:05:09.621Z,12.40
2022-12-01T07:15:14.187Z,12.13
2022-12-01T07:25:17.297Z,11.33
2022-12-01T07:35:21.647Z,12.07
2022-12-01T07:45:24.644Z,13.10
2022-12-01T07:55:29.087Z,13.63
2022-12-01T08:05:32.133Z,12.43
2022-12-01T08:15:36.998Z,13.13
2022-12-01T08:25:40.081Z,13.07
2022-12-01T08:35:44.529Z,14.40
2022-12-01T08:45:47.564Z,13.40
2022-12-01T08:55:51.915Z,14.37
2022-12-01T09:05:54.925Z,14.07
2022-12-01T09:16:01.073Z,14.53
2022-12-01T09:26:04.323Z,14.80
2022-12-01T09:36:10.331Z,14.83
2022-12-01T09:46:17.092Z,14.03
2022-12-01T09:56:25.292Z,14.17
2022-12-01T10:06:34.840Z,14.73
2022-12-01T10:16:47.234Z,14.37
2022-12-01T10:26:56.582Z,13.97
2022-12-01T10:37:01.055Z,13.30
2022-12-01T10:47:05.166Z,15.03
2022-12-01T10:57:17.468Z,14.70
2022-12-01T11:07:24.722Z,14.67
2022-12-01T11:17:33.169Z,15.17
2022-12-01T11:27:47.566Z,15.20
2022-12-01T11:38:27.876Z,14.90
2022-12-01T11:48:25.919Z,15.03
2022-12-01T11:58:30.422Z,15.23
2022-12-01T12:08:44.513Z,15.93
2022-12-01T12:19:06.452Z,15.80
2022-12-01T12:29:23.715Z,15.30
2022-12-01T12:39:50.268Z,14.80
2022-12-01T12:50:01.979Z,14.10
2022-12-01T13:00:10.170Z,13.83
2022-12-01T13:10:23.906Z,13.23
2022-12-01T13:20:30.162Z,12.80
2022-12-01T13:30:33.240Z,14.07
2022-12-01T13:40:38.312Z,13.57
2022-12-01T13:51:03.127Z,12.57
2022-12-01T14:01:39.284Z,12.30
2022-12-01T14:11:55.376Z,11.23
2022-12-01T14:21:58.609Z,12.63
2022-12-01T14:32:22.681Z,13.00
2022-12-01T14:42:49.479Z,12.57
2022-12-01T14:52:56.905Z,13.00
2022-12-01T15:03:03.119Z,12.27
2022-12-01T15:13:21.514Z,13.23
2022-12-01T15:23:24.569Z,14.00
2022-12-01T15:33:36.974Z,13.17
2022-12-01T15:43:41.408Z,12.80
2022-12-01T15:53:53.685Z,13.63
2022-12-01T16:03:59.482Z,14.00
2022-12-01T16:14:08.171Z,22.07
2022-12-01T16:24:16.240Z,15.57
2022-12-01T16:34:44.553Z,15.57
2022-12-01T16:44:46.920Z,16.83
2022-12-01T16:54:51.532Z,16.53
2022-12-01T17:04:54.771Z,15.73
2022-12-01T17:15:00.252Z,14.37
2022-12-01T17:25:03.357Z,13.90
2022-12-01T17:35:08.788Z,13.33
2022-12-01T17:45:12.196Z,14.53
2022-12-01T17:55:16.794Z,13.77
2022-12-01T18:05:20.000Z,14.23
2022-12-01T18:15:29.220Z,14.80
2022-12-01T18:25:35.555Z,14.53
2022-12-01T18:35:44.645Z,14.10
2022-12-01T18:45:47.739Z,13.43
2022-12-01T18:55:52.077Z,14.40
2022-12-01T19:05:55.153Z,14.57
2022-12-01T19:15:59.765Z,15.30
2022-12-01T19:26:06.048Z,14.77
2022-12-01T19:36:12.524Z,14.37
2022-12-01T19:46:18.708Z,14.97
2022-12-01T19:56:24.052Z,15.90
2022-12-01T20:06:28.655Z,15.87
2022-12-01T20:16:33.200Z,15.13
2022-12-01T20:26:38.779Z,16.33
2022-12-01T20:36:43.537Z,15.03
2022-12-01T20:46:47.557Z,16.53
2022-12-01T20:56:52.006Z,16.30
2022-12-01T21:06:57.085Z,15.83
2022-12-01T21:17:10.929Z,16.60
2022-12-01T21:27:15.563Z,15.33
2022-12-01T21:37:23.481Z,16.40
2022-12-01T21:47:28.571Z,15.33
2022-12-01T21:57:42.744Z,15.33
2022-12-01T22:07:46.285Z,16.03
2022-12-01T22:17:50.750Z,15.93
2022-12-01T22:27:54.531Z,15.60
2022-12-01T22:38:13.867Z,15.80
2022-12-01T22:48:34.583Z,15.67
2022-12-01T22:58:41.983Z,14.93
2022-12-01T23:08:45.045Z,15.60
2022-12-01T23:18:49.480Z,15.97
2022-12-01T23:28:52.499Z,15.37
2022-12-01T23:38:59.107Z,14.40
2022-12-01T23:49:11.227Z,14.77
2022-12-01T23:59:15.795Z,14.80
